Time;durP1;ratioP1;P1;durP2;ratioP2;P2;SDS_P1;SDS_P2;PMS_P1;PMS_P2;Temp;Humidity;BMP_temperature;BMP_pressure;BME280_temperature;BME280_humidity;BME280_pressure;Samples;Min_cycle;Max_cycle;Signal;HPM_P1;HPM_P2
2023/12/10 00:01:46;;;;;;;2.13;1.93;;;;;;;7.29;81.95;95154.75;5007203;28;20267;-70
2023/12/10 00:04:12;;;;;;;2.57;2.37;;;;;;;7.39;81.89;95156.00;5006808;28;20199;-71
2023/12/10 00:06:37;;;;;;;2.73;1.60;;;;;;;7.36;81.90;95155.28;5006190;28;20196;-70
2023/12/10 00:09:03;;;;;;;2.40;2.07;;;;;;;7.30;82.56;95168.66;5006700;28;20948;-69
2023/12/10 00:11:28;;;;;;;2.10;1.90;;;;;;;7.34;83.21;95176.25;5006800;28;20203;-70
2023/12/10 00:13:54;;;;;;;1.60;1.50;;;;;;;7.40;83.08;95186.38;5006772;28;20215;-70
2023/12/10 00:16:19;;;;;;;3.30;1.50;;;;;;;7.42;82.28;95192.38;5002967;28;20683;-71
2023/12/10 00:18:44;;;;;;;2.27;1.33;;;;;;;7.49;82.15;95200.75;4986895;28;20201;-71
2023/12/10 00:21:14;;;;;;;3.30;1.53;;;;;;;7.42;83.13;95187.16;4987061;28;20181;-71
2023/12/10 00:23:39;;;;;;;2.00;1.30;;;;;;;7.50;82.11;95191.13;4986746;28;20262;-70
2023/12/10 00:26:05;;;;;;;1.77;1.30;;;;;;;7.52;82.38;95195.34;4984939;28;20491;-70
2023/12/10 00:28:31;;;;;;;1.83;1.43;;;;;;;7.61;81.80;95192.28;4986624;28;20211;-71
2023/12/10 00:30:56;;;;;;;1.57;1.10;;;;;;;7.59;81.61;95193.28;4986328;28;20177;-70
2023/12/10 00:33:21;;;;;;;1.50;1.13;;;;;;;7.40;82.66;95194.22;4992602;28;20465;-71
2023/12/10 00:35:47;;;;;;;1.93;1.40;;;;;;;7.53;82.45;95190.97;5005851;28;20231;-71
2023/12/10 00:38:12;;;;;;;2.80;1.40;;;;;;;7.39;82.32;95194.28;5006140;28;20185;-71
2023/12/10 00:40:38;;;;;;;6.93;2.43;;;;;;;7.41;82.41;95205.50;5005942;28;20561;-71
2023/12/10 00:43:04;;;;;;;2.70;1.50;;;;;;;7.51;81.43;95204.13;5006392;28;20669;-70
2023/12/10 00:45:29;;;;;;;1.20;0.87;;;;;;;7.47;81.97;95215.63;5006499;28;20255;-71
2023/12/10 00:47:55;;;;;;;1.97;1.10;;;;;;;7.52;81.48;95215.41;5006465;28;20441;-71
2023/12/10 00:50:20;;;;;;;1.43;1.17;;;;;;;7.47;81.81;95226.06;5006132;28;20274;-71
2023/12/10 00:52:46;;;;;;;1.50;1.20;;;;;;;7.56;82.06;95224.75;5006800;28;20204;-71
2023/12/10 00:55:12;;;;;;;1.20;1.00;;;;;;;7.54;81.33;95239.66;5005554;28;20670;-70
2023/12/10 00:57:37;;;;;;;2.10;1.00;;;;;;;7.45;82.57;95243.56;5005837;28;20439;-70
2023/12/10 01:00:04;;;;;;;1.87;1.00;;;;;;;7.56;80.89;95243.00;5005724;28;20238;-70
2023/12/10 01:02:30;;;;;;;3.43;1.10;;;;;;;7.43;81.36;95246.25;5005611;28;20169;-70
2023/12/10 01:04:55;;;;;;;2.33;1.40;;;;;;;7.50;80.85;95266.84;5005350;28;20473;-70
2023/12/10 01:07:21;;;;;;;4.10;1.17;;;;;;;7.40;80.93;95266.44;5004979;28;20295;-70
2023/12/10 01:09:46;;;;;;;1.90;1.20;;;;;;;7.39;80.90;95273.44;5004468;28;20206;-70
2023/12/10 01:12:12;;;;;;;2.20;1.30;;;;;;;7.40;79.52;95282.94;5006051;28;20188;-70
2023/12/10 01:14:38;;;;;;;2.03;1.17;;;;;;;7.39;80.32;95281.28;5005235;28;20180;-70
2023/12/10 01:17:04;;;;;;;5.17;1.27;;;;;;;7.50;79.04;95288.56;4995877;28;20637;-71
2023/12/10 01:19:29;;;;;;;1.20;0.90;;;;;;;7.38;79.88;95291.78;4986071;28;20416;-71
2023/12/10 01:21:54;;;;;;;1.63;1.23;;;;;;;7.34;79.53;95293.69;4986243;28;20208;-71
2023/12/10 01:24:20;;;;;;;4.33;1.33;;;;;;;7.32;80.36;95298.16;4985829;28;20308;-70
2023/12/10 01:26:45;;;;;;;1.50;1.10;;;;;;;7.37;80.27;95314.44;4985364;28;20197;-69
2023/12/10 01:29:11;;;;;;;2.40;1.27;;;;;;;7.33;80.27;95317.25;4985778;28;20199;-71
2023/12/10 01:31:36;;;;;;;7.40;1.50;;;;;;;7.40;79.97;95339.53;4985521;28;20543;-71
2023/12/10 01:34:03;;;;;;;1.50;1.30;;;;;;;7.37;80.17;95335.31;4998122;28;20282;-70
2023/12/10 01:36:29;;;;;;;6.13;5.20;;;;;;;7.37;80.36;95348.34;5004937;28;20850;-70
2023/12/10 01:38:55;;;;;;;1.23;0.90;;;;;;;7.38;79.20;95368.31;5005123;28;20494;-70
2023/12/10 01:41:21;;;;;;;2.50;1.50;;;;;;;7.33;79.31;95365.06;5005316;28;20968;-71
2023/12/10 01:43:46;;;;;;;5.60;1.57;;;;;;;7.28;78.86;95367.06;5005529;28;20536;-70
2023/12/10 01:46:12;;;;;;;7.90;2.17;;;;;;;7.25;78.80;95382.84;5008719;28;20986;-70
2023/12/10 01:48:39;;;;;;;5.53;3.30;;;;;;;7.27;78.16;95380.16;5010225;28;20180;-70
2023/12/10 01:51:06;;;;;;;5.60;1.67;;;;;;;7.39;77.28;95390.91;5002389;28;20185;-71
2023/12/10 01:53:31;;;;;;;3.97;1.80;;;;;;;7.35;77.46;95381.50;4993164;28;20511;-70
2023/12/10 01:55:57;;;;;;;2.23;1.40;;;;;;;7.32;77.55;95380.78;4992843;28;20974;-71
2023/12/10 01:58:23;;;;;;;6.67;1.60;;;;;;;7.29;78.40;95379.19;4992861;28;20624;-70
2023/12/10 02:00:49;;;;;;;3.77;1.70;;;;;;;7.32;77.96;95394.72;4992815;28;20211;-70
2023/12/10 02:03:15;;;;;;;10.33;2.10;;;;;;;7.30;78.68;95401.75;4991067;28;20412;-71
2023/12/10 02:05:41;;;;;;;3.80;1.77;;;;;;;7.26;79.31;95418.47;4988867;28;20426;-70
2023/12/10 02:08:06;;;;;;;4.87;2.10;;;;;;;7.30;78.64;95404.38;4987150;28;20549;-69
2023/12/10 02:10:32;;;;;;;3.60;1.80;;;;;;;7.37;78.20;95413.59;4988644;28;20489;-70
2023/12/10 02:12:57;;;;;;;4.50;1.73;;;;;;;7.34;78.83;95421.56;4988906;28;20201;-70
2023/12/10 02:15:28;;;;;;;7.20;2.20;;;;;;;7.36;78.80;95417.13;4988992;28;20180;-70
2023/12/10 02:17:53;;;;;;;5.60;1.80;;;;;;;7.35;78.47;95420.66;5004631;28;20196;-70
2023/12/10 02:20:18;;;;;;;7.40;2.33;;;;;;;7.30;78.87;95422.66;5008328;28;21074;-70
2023/12/10 02:22:47;;;;;;;7.90;2.30;;;;;;;7.30;78.51;95422.66;5008483;28;20697;-70
2023/12/10 02:25:14;;;;;;;4.73;1.80;;;;;;;7.28;77.91;95427.09;5006805;28;20183;-70
2023/12/10 02:27:41;;;;;;;3.67;1.70;;;;;;;7.33;77.25;95427.72;5007876;28;20434;-70
2023/12/10 02:30:07;;;;;;;4.73;1.73;;;;;;;7.37;77.31;95447.53;5007700;28;20417;-70
2023/12/10 02:32:32;;;;;;;4.50;1.80;;;;;;;7.38;77.59;95451.81;5007504;28;20465;-71
2023/12/10 02:34:58;;;;;;;6.13;2.53;;;;;;;7.39;77.44;95450.94;4987841;28;20454;-71
2023/12/10 02:37:23;;;;;;;5.20;1.63;;;;;;;7.37;76.92;95460.59;4988199;28;20200;-70
2023/12/10 02:39:48;;;;;;;7.33;1.83;;;;;;;7.42;76.88;95457.75;4988214;28;20175;-69
2023/12/10 02:42:14;;;;;;;8.30;2.10;;;;;;;7.40;77.21;95457.81;4988305;28;20196;-69
2023/12/10 02:44:40;;;;;;;8.10;2.40;;;;;;;7.47;76.23;95457.56;4988062;28;20550;-70
2023/12/10 02:47:05;;;;;;;3.73;1.63;;;;;;;7.40;76.32;95465.66;4987677;28;20188;-70
2023/12/10 02:49:31;;;;;;;4.20;1.93;;;;;;;7.36;77.22;95469.31;4988098;28;20272;-70
2023/12/10 02:51:56;;;;;;;4.57;1.70;;;;;;;7.40;76.79;95472.66;5006069;28;20165;-70
2023/12/10 02:54:21;;;;;;;5.30;2.17;;;;;;;7.36;76.83;95474.53;5007902;28;20180;-71
2023/12/10 02:56:47;;;;;;;6.30;1.83;;;;;;;7.40;76.19;95473.47;5006365;28;20203;-70
2023/12/10 02:59:12;;;;;;;11.20;3.00;;;;;;;7.34;76.24;95473.75;5007629;28;20203;-68
2023/12/10 03:01:37;;;;;;;9.07;2.40;;;;;;;7.46;76.00;95479.34;5005960;28;20245;-69
2023/12/10 03:04:03;;;;;;;6.13;1.50;;;;;;;7.43;76.40;95481.16;5007560;28;20168;-70
2023/12/10 03:06:28;;;;;;;9.83;3.80;;;;;;;7.32;76.25;95483.44;5007155;28;20783;-70
2023/12/10 03:08:54;;;;;;;6.57;1.83;;;;;;;7.41;76.49;95482.16;5007414;28;20175;-70
2023/12/10 03:11:19;;;;;;;4.73;1.87;;;;;;;7.29;76.48;95488.78;5006920;28;20258;-69
2023/12/10 03:13:45;;;;;;;4.17;1.50;;;;;;;7.36;75.96;95495.41;5007393;28;20668;-70
2023/12/10 03:16:10;;;;;;;6.37;2.23;;;;;;;7.33;76.67;95497.34;5004624;28;20200;-71
2023/12/10 03:18:35;;;;;;;3.63;1.63;;;;;;;7.33;76.43;95502.56;4987411;28;20612;-70
2023/12/10 03:21:01;;;;;;;3.90;1.80;;;;;;;7.28;76.35;95501.91;4986037;28;20215;-70
2023/12/10 03:23:26;;;;;;;5.70;3.00;;;;;;;7.33;76.47;95508.63;4987343;28;20251;-70
2023/12/10 03:25:52;;;;;;;8.50;2.03;;;;;;;7.35;76.18;95512.00;4987241;28;20203;-69
2023/12/10 03:28:17;;;;;;;5.60;1.90;;;;;;;7.31;75.71;95507.84;4987416;28;20181;-69
2023/12/10 03:30:42;;;;;;;9.03;2.07;;;;;;;7.35;75.79;95509.41;4987815;28;20177;-70
2023/12/10 03:33:08;;;;;;;8.97;4.50;;;;;;;7.35;75.92;95519.84;4992428;28;20199;-70
2023/12/10 03:35:33;;;;;;;6.70;2.40;;;;;;;7.28;75.51;95539.28;5006964;28;20213;-70
2023/12/10 03:37:59;;;;;;;9.90;2.10;;;;;;;7.30;75.43;95520.94;5006597;28;20867;-70
2023/12/10 03:40:24;;;;;;;8.80;2.10;;;;;;;7.27;75.56;95515.88;5006887;28;20176;-70
2023/12/10 03:42:50;;;;;;;12.37;2.17;;;;;;;7.24;76.37;95526.44;5006944;28;20531;-70
2023/12/10 03:45:15;;;;;;;4.70;1.80;;;;;;;7.16;76.01;95527.66;5006523;28;20172;-69
2023/12/10 03:47:46;;;;;;;5.70;2.20;;;;;;;7.15;75.92;95528.53;5006187;28;20748;-72
2023/12/10 03:50:15;;;;;;;6.70;2.20;;;;;;;7.12;75.97;95527.84;5002557;28;20551;-70
2023/12/10 03:52:41;;;;;;;5.60;2.63;;;;;;;7.07;76.72;95533.25;4986854;28;20455;-70
2023/12/10 03:55:07;;;;;;;6.20;2.97;;;;;;;7.07;75.52;95541.09;4986766;28;21010;-69
2023/12/10 03:57:32;;;;;;;12.90;3.77;;;;;;;7.09;75.37;95547.09;4986711;28;20193;-71
2023/12/10 03:59:57;;;;;;;10.20;3.00;;;;;;;7.07;75.54;95548.06;4986658;28;20413;-70
2023/12/10 04:02:23;;;;;;;8.90;2.60;;;;;;;7.02;75.49;95553.50;4986941;28;20188;-70
2023/12/10 04:04:49;;;;;;;8.40;2.70;;;;;;;7.00;76.23;95557.94;4986907;28;20951;-70
2023/12/10 04:07:14;;;;;;;13.80;2.97;;;;;;;6.98;75.85;95567.56;4987114;28;20243;-71
2023/12/10 04:09:40;;;;;;;7.00;2.00;;;;;;;6.88;76.50;95582.78;4986072;28;20181;-70
2023/12/10 04:12:06;;;;;;;7.73;1.80;;;;;;;6.91;76.16;95585.25;4985862;28;20178;-72
2023/12/10 04:14:31;;;;;;;9.57;1.87;;;;;;;6.75;76.28;95598.06;4987178;28;20180;-69
2023/12/10 04:16:57;;;;;;;4.90;1.93;;;;;;;6.85;75.47;95611.59;4995082;28;20694;-70
2023/12/10 04:19:22;;;;;;;6.80;2.10;;;;;;;7.00;74.45;95604.88;5006702;28;20215;-70
2023/12/10 04:21:47;;;;;;;6.13;2.70;;;;;;;6.93;74.58;95622.53;5006135;28;20168;-69
2023/12/10 04:24:15;;;;;;;5.53;1.77;;;;;;;6.99;74.12;95622.28;5006152;28;20247;-69
2023/12/10 04:26:40;;;;;;;8.80;3.03;;;;;;;7.07;73.99;95618.50;5005676;28;20188;-69
2023/12/10 04:29:06;;;;;;;7.40;2.03;;;;;;;7.07;73.85;95613.31;5006423;28;20817;-70
2023/12/10 04:31:31;;;;;;;5.30;2.30;;;;;;;7.08;74.25;95614.97;5006580;28;20172;-70
2023/12/10 04:33:57;;;;;;;5.77;2.40;;;;;;;7.03;74.53;95624.78;4994540;28;20204;-69
2023/12/10 04:36:23;;;;;;;6.43;2.00;;;;;;;7.08;74.78;95630.63;4986232;28;20199;-71
2023/12/10 04:38:48;;;;;;;8.53;1.77;;;;;;;7.02;75.60;95631.75;4987272;28;20195;-69
2023/12/10 04:41:14;;;;;;;5.87;2.00;;;;;;;6.98;75.95;95638.00;4987123;28;20327;-69
2023/12/10 04:43:39;;;;;;;5.67;2.13;;;;;;;6.93;75.35;95635.59;4988438;28;20261;-70
2023/12/10 04:46:05;;;;;;;5.20;2.13;;;;;;;7.12;75.25;95633.03;4985308;28;20172;-70
2023/12/10 04:48:30;;;;;;;6.53;1.80;;;;;;;6.98;74.95;95636.22;4984485;28;20566;-69
2023/12/10 04:50:56;;;;;;;6.80;1.90;;;;;;;6.95;75.06;95633.75;4995567;28;20172;-70
2023/12/10 04:53:21;;;;;;;7.40;2.90;;;;;;;7.03;75.16;95643.03;5005394;28;20196;-69
2023/12/10 04:55:48;;;;;;;6.67;2.10;;;;;;;6.95;75.41;95640.75;5005600;28;20186;-69
2023/12/10 04:58:13;;;;;;;9.57;2.27;;;;;;;7.00;74.59;95639.63;5005138;28;20192;-69
2023/12/10 05:00:39;;;;;;;6.27;2.13;;;;;;;6.98;74.52;95645.81;5004043;28;20415;-70
2023/12/10 05:03:04;;;;;;;10.30;2.60;;;;;;;6.96;74.37;95640.66;5005292;28;20171;-69
2023/12/10 05:05:29;;;;;;;9.57;2.20;;;;;;;7.01;74.16;95637.88;5005113;28;20215;-70
2023/12/10 05:07:55;;;;;;;4.70;2.43;;;;;;;7.08;73.84;95646.28;5004777;28;20192;-70
2023/12/10 05:10:21;;;;;;;3.90;1.67;;;;;;;7.06;73.90;95642.88;5005640;28;20603;-70
2023/12/10 05:12:47;;;;;;;10.10;2.10;;;;;;;7.06;74.12;95645.50;5006392;28;20231;-70
2023/12/10 05:15:14;;;;;;;10.70;2.97;;;;;;;7.10;73.65;95640.09;5006469;28;20450;-69
2023/12/10 05:17:39;;;;;;;16.80;3.70;;;;;;;7.08;73.67;95648.91;4991309;28;20236;-70
2023/12/10 05:20:06;;;;;;;13.43;2.87;;;;;;;7.05;74.22;95652.47;4986382;28;20455;-70
2023/12/10 05:22:31;;;;;;;6.47;2.80;;;;;;;7.00;73.74;95655.28;4989953;28;20260;-70
2023/12/10 05:24:57;;;;;;;7.80;2.60;;;;;;;7.08;73.87;95661.94;4989799;28;20551;-69
2023/12/10 05:27:22;;;;;;;9.13;2.90;;;;;;;6.99;73.64;95669.25;4989939;28;20203;-69
2023/12/10 05:29:47;;;;;;;8.70;2.73;;;;;;;7.02;74.30;95668.28;4989434;28;20559;-70
2023/12/10 05:32:13;;;;;;;6.07;2.60;;;;;;;6.87;74.73;95669.72;4989030;28;20899;-70
2023/12/10 05:34:38;;;;;;;7.77;3.30;;;;;;;6.98;74.60;95664.94;4990475;28;20169;-70
2023/12/10 05:37:03;;;;;;;12.50;3.00;;;;;;;6.95;73.71;95675.50;4985148;28;20267;-71
2023/12/10 05:39:29;;;;;;;8.60;2.70;;;;;;;6.86;74.47;95678.47;4985532;28;20184;-71
2023/12/10 05:41:54;;;;;;;5.13;2.50;;;;;;;6.91;74.21;95683.50;5000289;28;20255;-70
2023/12/10 05:44:20;;;;;;;8.80;3.73;;;;;;;6.83;73.84;95689.03;4983658;28;20173;-71
2023/12/10 05:46:45;;;;;;;11.60;3.93;;;;;;;6.99;73.26;95691.84;4984790;28;20196;-69
2023/12/10 05:49:11;;;;;;;10.60;3.73;;;;;;;6.84;74.16;95698.56;4985593;28;20172;-70
2023/12/10 05:51:36;;;;;;;7.10;2.70;;;;;;;6.96;73.28;95705.03;5000595;28;20168;-70
2023/12/10 05:54:02;;;;;;;4.23;2.43;;;;;;;6.78;73.76;95717.91;5004992;28;20226;-69
2023/12/10 05:56:27;;;;;;;11.73;2.77;;;;;;;6.88;72.56;95714.94;5004568;28;20192;-69
2023/12/10 05:58:52;;;;;;;8.43;2.07;;;;;;;6.95;72.14;95712.00;5004671;28;20199;-69
2023/12/10 06:01:18;;;;;;;7.70;3.07;;;;;;;6.93;72.32;95713.84;5005218;28;20172;-71
2023/12/10 06:03:43;;;;;;;8.03;2.60;;;;;;;6.86;72.79;95719.38;5005394;28;20169;-71
2023/12/10 06:06:09;;;;;;;13.37;3.00;;;;;;;6.86;72.73;95721.97;5004599;28;20201;-70
2023/12/10 06:08:34;;;;;;;5.80;2.07;;;;;;;6.74;73.26;95734.59;5004902;28;20195;-69
2023/12/10 06:11:00;;;;;;;7.00;2.50;;;;;;;6.83;72.33;95736.00;5004661;28;20199;-69
2023/12/10 06:13:27;;;;;;;11.77;2.63;;;;;;;6.81;73.18;95736.97;5003517;28;20192;-69
2023/12/10 06:15:54;;;;;;;8.63;2.87;;;;;;;6.73;73.57;95738.13;5004478;28;20773;-69
2023/12/10 06:18:20;;;;;;;13.20;3.87;;;;;;;6.79;73.16;95740.47;5004379;28;20446;-69
2023/12/10 06:20:46;;;;;;;12.93;2.77;;;;;;;6.66;73.47;95754.91;5004462;28;20439;-71
2023/12/10 06:23:11;;;;;;;10.10;3.50;;;;;;;6.73;73.41;95761.59;5005298;28;20207;-71
2023/12/10 06:25:36;;;;;;;12.70;4.63;;;;;;;6.68;73.19;95760.03;5004663;28;20180;-72
2023/12/10 06:28:02;;;;;;;5.73;3.63;;;;;;;6.65;73.67;95771.44;5004365;28;20606;-70
2023/12/10 06:30:28;;;;;;;8.60;3.03;;;;;;;6.73;73.17;95784.19;5005229;28;20208;-70
2023/12/10 06:32:53;;;;;;;14.80;3.50;;;;;;;6.63;73.44;95775.03;5003887;28;20371;-70
2023/12/10 06:35:18;;;;;;;4.80;2.63;;;;;;;6.66;73.88;95782.72;4988255;28;20278;-71
2023/12/10 06:37:44;;;;;;;9.10;5.20;;;;;;;6.57;73.95;95776.13;4988501;28;20192;-71
2023/12/10 06:40:10;;;;;;;12.87;3.60;;;;;;;6.65;73.25;95783.63;4988230;28;20184;-71
2023/12/10 06:42:35;;;;;;;7.70;2.70;;;;;;;6.67;73.36;95780.06;4988548;28;20161;-71
2023/12/10 06:45:03;;;;;;;6.53;2.70;;;;;;;6.58;73.45;95783.00;4988152;28;20954;-71
2023/12/10 06:47:28;;;;;;;13.70;3.23;;;;;;;6.56;73.72;95785.66;4988079;28;20200;-69
2023/12/10 06:49:54;;;;;;;7.07;2.70;;;;;;;6.63;72.98;95801.94;4989444;28;20413;-72
2023/12/10 06:52:19;;;;;;;6.60;2.83;;;;;;;6.61;73.12;95805.50;5008014;28;20200;-69
2023/12/10 06:54:45;;;;;;;8.30;2.63;;;;;;;6.61;73.42;95803.75;5007761;28;20172;-70
2023/12/10 06:57:10;;;;;;;6.63;2.70;;;;;;;6.70;72.88;95803.41;5005388;28;20215;-70
2023/12/10 06:59:36;;;;;;;9.23;5.17;;;;;;;6.71;72.61;95793.84;5007904;28;20263;-70
2023/12/10 07:02:01;;;;;;;15.33;3.07;;;;;;;6.67;72.96;95797.47;5007346;28;20180;-70
2023/12/10 07:04:27;;;;;;;8.07;3.20;;;;;;;6.63;72.76;95806.31;5008291;28;20180;-71
2023/12/10 07:06:52;;;;;;;8.63;2.90;;;;;;;6.53;72.57;95811.88;5007578;28;20649;-70
2023/12/10 07:09:17;;;;;;;14.50;2.53;;;;;;;6.49;72.41;95810.28;5007999;28;20176;-72
2023/12/10 07:11:43;;;;;;;9.47;3.40;;;;;;;6.49;72.73;95810.28;5002191;28;20314;-70
2023/12/10 07:14:08;;;;;;;12.67;3.97;;;;;;;6.49;73.35;95804.22;5002494;28;20223;-69
2023/12/10 07:16:34;;;;;;;9.43;2.70;;;;;;;6.47;72.58;95813.84;5002502;28;20224;-70
2023/12/10 07:18:59;;;;;;;12.67;3.83;;;;;;;6.65;71.69;95812.31;5003546;28;20287;-70
2023/12/10 07:21:25;;;;;;;19.67;3.77;;;;;;;6.86;71.33;95814.09;5000799;28;20854;-70
2023/12/10 07:23:50;;;;;;;14.30;3.27;;;;;;;7.00;70.71;95824.84;4998598;28;20303;-70
2023/12/10 07:26:23;;;;;;;12.30;3.43;;;;;;;7.31;69.12;95839.28;4997544;28;20785;-68
2023/12/10 07:28:49;;;;;;;7.23;3.40;;;;;;;7.57;68.80;95827.78;5000432;28;20188;-67
2023/12/10 07:31:14;;;;;;;7.37;2.70;;;;;;;7.58;68.22;95834.72;5000997;28;20432;-68
2023/12/10 07:33:40;;;;;;;9.13;3.27;;;;;;;7.33;68.42;95850.53;4993342;28;20463;-68
2023/12/10 07:36:06;;;;;;;10.40;2.60;;;;;;;7.15;69.11;95841.66;4989247;28;20922;-68
2023/12/10 07:38:31;;;;;;;14.20;3.20;;;;;;;6.99;69.99;95845.75;5001331;28;20211;-68
2023/12/10 07:40:57;;;;;;;8.60;3.13;;;;;;;7.18;69.11;95849.38;5004653;28;20837;-67
2023/12/10 07:43:22;;;;;;;6.97;2.90;;;;;;;7.29;69.08;95861.16;5003154;28;20203;-69
2023/12/10 07:45:48;;;;;;;8.33;2.30;;;;;;;7.20;69.59;95870.19;5004264;28;20180;-68
2023/12/10 07:48:13;;;;;;;7.10;2.83;;;;;;;7.22;69.74;95871.81;4996836;28;20197;-68
2023/12/10 07:50:39;;;;;;;13.47;4.23;;;;;;;7.06;70.14;95875.91;5003549;28;20638;-68
2023/12/10 07:53:04;;;;;;;8.70;2.77;;;;;;;6.98;70.54;95881.44;5006164;28;20291;-72
2023/12/10 07:55:30;;;;;;;9.83;2.83;;;;;;;7.03;69.84;95893.47;5002006;28;20177;-67
2023/12/10 07:57:55;;;;;;;7.47;2.20;;;;;;;7.04;69.84;95900.38;5000226;28;20208;-67
2023/12/10 08:00:21;;;;;;;11.17;3.10;;;;;;;7.07;69.64;95897.66;5003156;28;20177;-69
2023/12/10 08:02:46;;;;;;;10.60;2.73;;;;;;;7.18;68.96;95898.97;5000553;28;20607;-70
2023/12/10 08:05:12;;;;;;;9.50;2.10;;;;;;;7.67;68.32;95901.38;5003701;28;20211;-69
2023/12/10 08:07:37;;;;;;;10.87;4.70;;;;;;;7.76;67.53;95905.38;5002173;28;20380;-69
2023/12/10 08:10:05;;;;;;;11.77;2.70;;;;;;;8.77;64.88;95913.34;4995186;28;20267;-69
2023/12/10 08:12:31;;;;;;;15.20;3.50;;;;;;;9.65;61.16;95900.50;5002445;28;20196;-67
2023/12/10 08:14:56;;;;;;;18.20;3.80;;;;;;;9.10;61.87;95908.34;5003085;28;20450;-68
2023/12/10 08:17:22;;;;;;;18.03;6.40;;;;;;;9.48;61.02;95911.78;4994940;28;20201;-71
2023/12/10 08:19:47;;;;;;;11.40;3.60;;;;;;;10.59;57.57;95903.72;5001532;28;20259;-69
2023/12/10 08:22:13;;;;;;;7.23;2.83;;;;;;;10.34;57.42;95904.13;5000603;28;20188;-67
2023/12/10 08:24:39;;;;;;;8.17;2.50;;;;;;;10.03;58.59;95913.50;4994234;28;20690;-68
2023/12/10 08:27:05;;;;;;;7.30;2.07;;;;;;;9.83;58.98;95913.66;4993934;28;20447;-69
2023/12/10 08:29:30;;;;;;;9.10;3.07;;;;;;;9.22;61.47;95920.03;4998793;28;20941;-70
2023/12/10 08:31:56;;;;;;;7.10;2.70;;;;;;;10.29;57.80;95908.75;5003693;28;20172;-70
2023/12/10 08:34:21;;;;;;;8.33;2.90;;;;;;;9.63;59.94;95920.66;4998567;28;20214;-70
2023/12/10 08:36:47;;;;;;;10.53;3.53;;;;;;;11.16;56.59;95905.97;4988391;28;20201;-70
2023/12/10 08:39:13;;;;;;;13.40;3.03;;;;;;;10.94;55.70;95901.03;5002205;28;20271;-71
2023/12/10 08:41:38;;;;;;;7.67;2.73;;;;;;;10.47;57.00;95912.22;4996523;28;20183;-71
2023/12/10 08:44:04;;;;;;;6.60;2.53;;;;;;;10.50;57.15;95909.44;4995538;28;20594;-72
2023/12/10 08:46:29;;;;;;;9.00;2.53;;;;;;;10.04;58.01;95916.97;5002358;28;20188;-69
2023/12/10 08:48:55;;;;;;;16.47;4.33;;;;;;;9.66;59.99;95922.28;5000237;28;20177;-70
2023/12/10 08:51:21;;;;;;;7.80;2.77;;;;;;;9.62;60.17;95920.78;5000137;28;20714;-71
2023/12/10 08:53:46;;;;;;;10.03;2.77;;;;;;;9.50;59.93;95922.19;5008567;28;20188;-71
2023/12/10 08:56:12;;;;;;;9.23;3.07;;;;;;;8.96;61.92;95929.91;5006116;28;20560;-70
2023/12/10 08:58:37;;;;;;;10.80;3.40;;;;;;;8.77;62.39;95927.25;5005402;28;20994;-66
2023/12/10 09:01:03;;;;;;;14.90;3.80;;;;;;;8.71;63.45;95937.13;5001482;28;20242;-68
2023/12/10 09:03:28;;;;;;;11.40;2.90;;;;;;;8.67;63.01;95946.91;5002271;28;20679;-68
2023/12/10 09:05:54;;;;;;;18.53;3.57;;;;;;;8.43;63.63;95959.25;5002562;28;20172;-66
2023/12/10 09:08:19;;;;;;;10.03;2.93;;;;;;;8.45;64.31;95966.09;5005020;28;20979;-67
2023/12/10 09:10:44;;;;;;;4.90;2.73;;;;;;;8.67;63.23;95963.44;4997619;28;20259;-67
2023/12/10 09:13:10;;;;;;;11.87;3.20;;;;;;;8.69;62.97;95966.84;4993751;28;20695;-67
2023/12/10 09:15:35;;;;;;;7.50;2.30;;;;;;;8.56;63.23;95965.66;5000006;28;20199;-69
2023/12/10 09:18:02;;;;;;;8.50;2.97;;;;;;;8.65;63.41;95969.66;4988360;28;20217;-69
2023/12/10 09:20:27;;;;;;;10.23;3.10;;;;;;;8.76;62.51;95982.25;4986171;28;20884;-67
2023/12/10 09:22:53;;;;;;;8.00;3.00;;;;;;;8.77;62.91;95989.22;4993821;28;20424;-67
2023/12/10 09:25:18;;;;;;;4.47;3.00;;;;;;;8.85;62.44;95998.41;5001754;28;20212;-69
2023/12/10 09:27:43;;;;;;;8.43;3.13;;;;;;;9.67;59.64;95998.22;4991535;28;20196;-68
2023/12/10 09:30:09;;;;;;;6.40;2.83;;;;;;;10.04;59.09;95993.84;5001685;28;20179;-68
2023/12/10 09:32:34;;;;;;;11.67;5.33;;;;;;;9.80;59.33;95995.84;4998854;28;20213;-67
2023/12/10 09:35:00;;;;;;;10.07;2.87;;;;;;;9.64;59.30;96008.00;4996151;28;20180;-68
2023/12/10 09:37:26;;;;;;;6.30;2.70;;;;;;;9.68;59.48;96009.53;4985585;28;20197;-68
2023/12/10 09:39:51;;;;;;;13.43;2.73;;;;;;;9.67;59.67;96007.84;4984601;28;20196;-68
2023/12/10 09:42:17;;;;;;;6.23;2.57;;;;;;;9.38;60.33;95999.56;4993297;28;20172;-67
2023/12/10 09:44:42;;;;;;;7.60;3.10;;;;;;;9.78;59.93;96002.97;5000685;28;20188;-67
2023/12/10 09:47:09;;;;;;;13.50;3.13;;;;;;;10.45;57.92;95990.16;5002325;28;20200;-66
2023/12/10 09:49:37;;;;;;;13.13;4.00;;;;;;;10.81;57.05;95987.44;4984769;28;20276;-69
2023/12/10 09:52:05;;;;;;;6.40;2.90;;;;;;;10.53;56.36;95978.31;5003758;28;20477;-67
2023/12/10 09:54:31;;;;;;;8.83;2.60;;;;;;;10.62;56.95;95979.66;5005931;28;20845;-67
2023/12/10 09:56:56;;;;;;;9.60;4.57;;;;;;;10.93;55.30;95975.44;4988925;28;20455;-68
2023/12/10 09:59:22;;;;;;;17.73;3.97;;;;;;;11.10;55.47;95977.19;4986096;28;20315;-69
2023/12/10 10:01:49;;;;;;;7.77;3.03;;;;;;;11.19;54.34;95967.03;5002632;28;20184;-67
2023/12/10 10:04:15;;;;;;;8.03;2.80;;;;;;;11.48;54.14;95974.28;5005512;28;20173;-67
2023/12/10 10:06:40;;;;;;;9.73;5.10;;;;;;;11.49;53.34;95968.13;5005907;28;20450;-68
2023/12/10 10:09:05;;;;;;;9.83;2.47;;;;;;;11.61;52.71;95968.28;4990243;28;20272;-69
2023/12/10 10:11:31;;;;;;;7.80;2.90;;;;;;;11.62;52.82;95975.25;4988941;28;20247;-67
2023/12/10 10:13:57;;;;;;;11.70;2.90;;;;;;;11.76;53.03;95973.63;4988984;28;20197;-68
2023/12/10 10:16:22;;;;;;;6.13;3.10;;;;;;;11.66;52.22;95978.53;4992421;28;20841;-70
2023/12/10 10:18:48;;;;;;;11.30;2.80;;;;;;;11.79;53.14;95981.34;5008874;28;20419;-68
2023/12/10 10:21:13;;;;;;;9.33;2.90;;;;;;;11.86;52.85;95993.22;5008282;28;20168;-68
2023/12/10 10:23:39;;;;;;;9.63;2.90;;;;;;;11.70;52.67;96002.91;4990213;28;20659;-71
2023/12/10 10:26:04;;;;;;;6.23;2.77;;;;;;;11.37;54.09;96001.16;4987099;28;20652;-67
2023/12/10 10:28:30;;;;;;;10.63;3.57;;;;;;;11.15;54.25;96007.53;4990101;28;20263;-68
2023/12/10 10:30:56;;;;;;;11.43;3.50;;;;;;;10.80;55.71;96017.25;4993285;28;20181;-68
2023/12/10 10:33:24;;;;;;;5.10;2.80;;;;;;;11.05;55.66;96008.09;5003099;28;20544;-69
2023/12/10 10:35:52;;;;;;;8.37;2.93;;;;;;;10.96;55.61;96012.03;5004755;28;20431;-68
2023/12/10 10:38:18;;;;;;;9.23;2.47;;;;;;;10.71;56.87;96005.44;4995796;28;20487;-71
2023/12/10 10:40:44;;;;;;;6.93;2.73;;;;;;;10.64;56.54;96004.03;4988880;28;20416;-68
2023/12/10 10:43:09;;;;;;;7.33;2.67;;;;;;;10.55;57.54;95996.63;4991438;28;20420;-68
2023/12/10 10:45:34;;;;;;;6.60;3.20;;;;;;;10.38;57.96;96006.19;5007643;28;20195;-68
2023/12/10 10:48:01;;;;;;;7.00;3.17;;;;;;;10.23;57.77;96000.81;4992683;28;20315;-68
2023/12/10 10:50:26;;;;;;;7.97;3.10;;;;;;;10.14;58.78;96002.13;4988188;28;20184;-67
2023/12/10 10:52:54;;;;;;;7.27;3.20;;;;;;;10.08;58.35;95998.00;5004248;28;20544;-68
2023/12/10 10:55:20;;;;;;;13.70;2.80;;;;;;;10.15;58.02;96001.19;5006343;28;20614;-67
2023/12/10 10:57:46;;;;;;;10.03;2.60;;;;;;;10.08;57.79;95992.75;4998363;28;20427;-69
2023/12/10 11:00:17;;;;;;;8.97;2.80;;;;;;;10.07;58.44;95998.94;5007640;28;20478;-68
2023/12/10 11:02:43;;;;;;;20.97;3.97;;;;;;;10.02;58.70;95995.69;5006315;28;20246;-68
2023/12/10 11:05:09;;;;;;;4.87;2.60;;;;;;;10.01;58.70;95986.13;4987646;28;20427;-68
2023/12/10 11:07:34;;;;;;;7.67;2.97;;;;;;;9.80;59.22;95987.16;4986164;28;20452;-68
2023/12/10 11:10:02;;;;;;;4.87;2.10;;;;;;;9.73;59.41;95986.59;4986294;28;20177;-67
2023/12/10 11:12:39;;;;;;;15.03;3.90;;;;;;;9.74;59.81;95993.53;4999764;28;20636;-68
2023/12/10 11:15:26;;;;;;;8.50;3.13;;;;;;;9.60;60.23;95988.94;4997650;28;20553;-66
2023/12/10 11:17:56;;;;;;;9.43;3.10;;;;;;;9.60;60.56;95995.97;5000539;28;20504;-69
2023/12/10 11:20:43;;;;;;;8.57;3.00;;;;;;;9.68;60.49;95988.56;4999250;28;20784;-67
2023/12/10 11:23:13;;;;;;;12.63;2.30;;;;;;;9.56;61.08;95987.38;4998051;28;20415;-70
2023/12/10 11:25:40;;;;;;;10.30;3.40;;;;;;;9.46;61.17;95989.56;4992031;28;20456;-70
2023/12/10 11:28:11;;;;;;;5.87;2.83;;;;;;;9.49;61.01;95989.41;4996446;28;20443;-69
2023/12/10 11:30:38;;;;;;;12.17;2.43;;;;;;;9.53;60.92;95987.53;5006780;28;20423;-68
2023/12/10 11:33:07;;;;;;;7.40;2.80;;;;;;;9.50;60.83;95987.69;5001356;28;20541;-68